Combs, Kentucky
Current Conditions -  °F | °C
As of 4:53 PM on Sunday 25 Jan 2015 (Local Time) from KJKL Reporting Station
Light Rain Light Rain  
Wind Chill: 45°   Ceiling: 5000
Heat Index: 47°   Visibility: 10mi
Dew Point: 32°   Wind: 5mph
Humidity: 56%   Direction: NA
Pressure: 29.68"   Gusts: NA
Location:  37.27°N, 83.21°W
Report Text: KJKL 252153Z AUTO VRB04KT 10SM -RA OVC050 08/00 A2968 RMK AO2 RAB36 SLP054 P0000 T00830000
Loading
Personal Weather Stations






























Interactive Weather Map New forecast layout! Learn more

10-Day Weather Forecast

Advertisements
Track Severe Weather on mobile